Time;durP1;ratioP1;P1;durP2;ratioP2;P2;SDS_P1;SDS_P2;PMS_P1;PMS_P2;Temp;Humidity;BMP_temperature;BMP_pressure;BME280_temperature;BME280_humidity;BME280_pressure;Samples;Min_cycle;Max_cycle;Signal;HPM_P1;HPM_P2
2021/01/03 00:01:49;;;;;;;1.83;0.40;;;5.40;99.90;;;;;;5030612;28;20072;-48
2021/01/03 00:04:16;;;;;;;5.00;0.47;;;5.40;99.90;;;;;;5028191;28;20045;-49
2021/01/03 00:06:42;;;;;;;3.08;0.22;;;5.40;99.90;;;;;;5024545;28;20663;-49
2021/01/03 00:09:37;;;;;;;8.05;0.30;;;5.40;99.90;;;;;;5030200;28;20060;-49
2021/01/03 00:12:03;;;;;;;1.77;0.30;;;5.30;99.90;;;;;;5029172;28;20049;-49
2021/01/03 00:14:33;;;;;;;2.58;0.30;;;5.40;99.90;;;;;;5019534;28;20069;-49
2021/01/03 00:17:02;;;;;;;5.18;1.10;;;5.30;99.90;;;;;;5025185;28;20049;-49
2021/01/03 00:19:29;;;;;;;7.03;0.50;;;5.30;99.90;;;;;;5030548;28;20467;-49
2021/01/03 00:21:55;;;;;;;1.08;0.28;;;5.30;99.90;;;;;;5026286;28;20068;-49
2021/01/03 00:24:22;;;;;;;4.15;0.30;;;5.20;99.90;;;;;;5014074;28;20037;-50
2021/01/03 00:26:49;;;;;;;7.28;0.60;;;5.20;99.90;;;;;;5029583;28;20046;-49
2021/01/03 00:29:18;;;;;;;2.30;0.30;;;5.20;99.90;;;;;;5027092;28;20065;-49
2021/01/03 00:31:47;;;;;;;1.73;0.30;;;5.20;99.90;;;;;;5034407;28;20406;-49
2021/01/03 00:34:14;;;;;;;2.58;0.30;;;5.20;99.90;;;;;;5033842;28;20061;-48
2021/01/03 00:36:41;;;;;;;5.32;0.40;;;5.20;99.90;;;;;;5030111;28;20391;-48
2021/01/03 00:39:08;;;;;;;7.57;0.60;;;5.10;99.90;;;;;;5030326;28;20052;-49
2021/01/03 00:41:35;;;;;;;4.45;0.70;;;5.20;99.90;;;;;;5029494;28;20138;-48
2021/01/03 00:44:04;;;;;;;3.53;0.50;;;5.10;99.90;;;;;;5028116;28;20057;-48
2021/01/03 00:46:31;;;;;;;1.48;0.20;;;5.10;99.90;;;;;;5022671;28;20044;-49
2021/01/03 00:48:58;;;;;;;6.15;0.30;;;5.10;99.90;;;;;;5031893;28;20041;-49
2021/01/03 00:51:24;;;;;;;3.00;0.22;;;5.10;99.90;;;;;;5030985;28;20163;-49
2021/01/03 00:53:51;;;;;;;4.47;0.30;;;5.10;99.90;;;;;;5028548;28;20045;-49
2021/01/03 00:56:17;;;;;;;2.05;0.30;;;5.10;99.90;;;;;;5028483;28;20045;-51
2021/01/03 00:58:43;;;;;;;3.47;0.73;;;5.10;99.90;;;;;;5018230;28;20397;-49
2021/01/03 01:01:11;;;;;;;4.57;0.20;;;5.10;99.90;;;;;;5027874;28;20048;-48
2021/01/03 01:03:37;;;;;;;3.67;0.30;;;5.00;99.90;;;;;;5021831;28;20045;-48
2021/01/03 01:06:04;;;;;;;3.95;0.22;;;5.00;99.90;;;;;;5033433;28;20042;-49
2021/01/03 01:08:30;;;;;;;2.25;0.30;;;5.00;99.90;;;;;;5030958;28;20056;-48
2021/01/03 01:10:57;;;;;;;4.82;0.30;;;5.00;99.90;;;;;;5020539;28;20411;-49
2021/01/03 01:13:23;;;;;;;0.57;0.30;;;5.00;99.90;;;;;;5028348;28;20048;-50
2021/01/03 01:15:50;;;;;;;0.95;0.20;;;5.00;99.90;;;;;;5013000;28;20789;-48
2021/01/03 01:18:17;;;;;;;5.97;0.30;;;5.00;99.90;;;;;;5032184;28;20402;-48
2021/01/03 01:20:43;;;;;;;0.77;0.20;;;5.00;99.90;;;;;;5030667;28;20493;-49
2021/01/03 01:23:09;;;;;;;2.90;0.20;;;4.90;99.90;;;;;;5033154;28;20396;-48
2021/01/03 01:25:36;;;;;;;0.73;0.28;;;4.90;99.90;;;;;;5030154;28;20061;-49
2021/01/03 01:28:03;;;;;;;2.83;0.40;;;4.90;99.90;;;;;;5018829;28;20137;-48
2021/01/03 01:30:31;;;;;;;2.65;0.30;;;4.90;99.90;;;;;;5029780;28;20044;-48
2021/01/03 01:32:59;;;;;;;1.08;0.55;;;4.90;99.90;;;;;;5020420;28;20042;-48
2021/01/03 01:35:30;;;;;;;0.65;0.20;;;4.90;99.90;;;;;;5030075;28;20053;-48
2021/01/03 01:37:57;;;;;;;2.25;0.10;;;4.80;99.90;;;;;;5030661;28;20057;-49
2021/01/03 01:40:30;;;;;;;2.35;0.20;;;4.80;99.90;;;;;;5023521;28;20554;-49
2021/01/03 01:42:57;;;;;;;2.20;0.20;;;4.80;99.90;;;;;;5026029;28;20092;-49
2021/01/03 01:45:29;;;;;;;3.70;0.40;;;4.70;99.90;;;;;;5028940;28;20455;-49
2021/01/03 01:48:13;;;;;;;1.67;0.28;;;4.70;99.90;;;;;;5030319;28;20049;-49
2021/01/03 01:50:43;;;;;;;1.23;0.63;;;4.70;99.90;;;;;;5032281;28;20497;-49
2021/01/03 01:53:25;;;;;;;0.38;0.17;;;4.70;99.90;;;;;;5032104;28;20104;-48
2021/01/03 01:56:10;;;;;;;1.55;0.25;;;4.70;99.90;;;;;;5028840;28;20064;-48
2021/01/03 01:59:03;;;;;;;2.28;0.20;;;4.70;99.90;;;;;;5022848;28;20057;-48
2021/01/03 02:01:58;;;;;;;1.45;0.20;;;4.60;99.90;;;;;;5033910;28;20061;-48
2021/01/03 02:04:50;;;;;;;1.15;0.20;;;4.60;99.90;;;;;;5030469;28;20138;-49
2021/01/03 02:07:26;;;;;;;1.80;0.17;;;4.70;99.90;;;;;;5016894;28;20037;-49
2021/01/03 02:10:12;;;;;;;1.30;0.10;;;4.70;99.90;;;;;;5029660;28;20053;-49
2021/01/03 02:12:43;;;;;;;3.80;0.25;;;4.70;99.90;;;;;;5019482;28;20053;-48
2021/01/03 02:15:21;;;;;;;2.15;0.20;;;4.70;99.90;;;;;;5018853;28;20054;-49
2021/01/03 02:17:48;;;;;;;3.53;0.20;;;4.70;99.90;;;;;;5026871;28;20074;-48
2021/01/03 02:20:16;;;;;;;2.05;0.13;;;4.60;99.90;;;;;;5014403;28;20046;-49
2021/01/03 02:22:49;;;;;;;4.10;0.10;;;4.60;99.90;;;;;;5030578;28;20048;-48
2021/01/03 02:25:17;;;;;;;1.38;0.10;;;4.50;99.90;;;;;;5031701;28;20053;-48
2021/01/03 02:28:11;;;;;;;1.98;0.10;;;4.50;99.90;;;;;;5030512;28;20052;-49
2021/01/03 02:30:39;;;;;;;;;;;4.50;99.90;;;;;;5030232;28;20045;-49
2021/01/03 02:33:20;;;;;;;0.88;0.13;;;4.50;99.90;;;;;;5031552;28;19944;-48
2021/01/03 02:35:48;;;;;;;4.72;0.30;;;4.40;99.90;;;;;;5029353;28;20049;-49
2021/01/03 02:38:21;;;;;;;1.17;0.10;;;4.40;99.90;;;;;;5017861;28;20402;-48
2021/01/03 02:40:47;;;;;;;3.65;0.20;;;4.50;99.90;;;;;;5030604;28;20053;-48
2021/01/03 02:43:14;;;;;;;0.75;0.20;;;4.50;99.90;;;;;;5029261;28;20052;-48
2021/01/03 02:45:40;;;;;;;1.48;0.20;;;4.40;99.90;;;;;;5020071;28;20105;-49
2021/01/03 02:48:14;;;;;;;7.20;0.82;;;4.40;99.90;;;;;;5028568;28;20057;-48
2021/01/03 02:50:40;;;;;;;1.98;0.60;;;4.30;99.90;;;;;;5029487;28;20042;-49
2021/01/03 02:53:08;;;;;;;4.13;0.50;;;4.30;99.90;;;;;;5030793;28;20045;-48
2021/01/03 02:55:35;;;;;;;6.13;0.40;;;4.30;99.90;;;;;;5030552;28;20074;-49
2021/01/03 02:58:03;;;;;;;1.45;0.30;;;4.30;99.90;;;;;;5019540;28;20107;-48
2021/01/03 03:00:36;;;;;;;5.93;0.30;;;4.30;99.90;;;;;;5022489;28;20053;-48
2021/01/03 03:03:05;;;;;;;2.70;0.82;;;4.30;99.90;;;;;;5014560;28;20065;-49
2021/01/03 03:05:32;;;;;;;4.45;0.40;;;4.30;99.90;;;;;;5025892;28;20062;-49
2021/01/03 03:07:58;;;;;;;3.92;0.50;;;4.30;99.90;;;;;;5015658;28;20054;-48
2021/01/03 03:10:27;;;;;;;2.35;0.90;;;4.30;99.90;;;;;;5031194;28;20042;-48
2021/01/03 03:12:56;;;;;;;2.40;0.70;;;4.30;99.90;;;;;;5029626;28;20052;-50
2021/01/03 03:15:24;;;;;;;6.03;0.63;;;4.30;99.90;;;;;;5030085;28;20045;-48
2021/01/03 03:17:51;;;;;;;0.70;0.40;;;4.30;99.90;;;;;;5029539;28;20057;-48
2021/01/03 03:20:19;;;;;;;0.80;0.20;;;4.30;99.90;;;;;;5020429;28;20060;-48
2021/01/03 03:22:46;;;;;;;2.40;0.60;;;4.30;99.90;;;;;;5028369;28;20045;-48
2021/01/03 03:25:13;;;;;;;5.47;1.50;;;4.30;99.90;;;;;;5021123;28;20091;-49
2021/01/03 03:27:40;;;;;;;5.45;0.93;;;4.30;99.90;;;;;;5022691;28;20045;-48
2021/01/03 03:30:09;;;;;;;1.55;0.80;;;4.30;99.90;;;;;;5020598;28;20053;-49
2021/01/03 03:32:36;;;;;;;0.70;0.30;;;4.20;99.90;;;;;;5030845;28;20046;-49
2021/01/03 03:35:07;;;;;;;4.53;0.20;;;4.30;99.90;;;;;;5028574;28;20049;-49
2021/01/03 03:37:33;;;;;;;1.15;0.20;;;4.30;99.90;;;;;;5018472;28;20050;-50
2021/01/03 03:40:00;;;;;;;3.45;0.30;;;4.30;99.90;;;;;;5025121;28;20041;-49
2021/01/03 03:42:27;;;;;;;4.22;0.10;;;4.30;99.90;;;;;;5015395;28;20053;-49
2021/01/03 03:44:53;;;;;;;1.42;0.40;;;4.30;99.90;;;;;;5031260;28;20056;-48
2021/01/03 03:47:19;;;;;;;2.55;0.20;;;4.30;99.90;;;;;;5025165;28;20057;-48
2021/01/03 03:49:46;;;;;;;0.63;0.10;;;4.30;99.90;;;;;;5030803;28;20045;-48
2021/01/03 03:52:12;;;;;;;2.25;0.20;;;4.30;99.90;;;;;;5027086;28;20103;-49
2021/01/03 03:54:42;;;;;;;3.35;0.10;;;4.30;99.90;;;;;;5030504;28;20053;-48
2021/01/03 03:57:09;;;;;;;2.88;0.13;;;4.30;99.90;;;;;;5027442;28;20140;-50
2021/01/03 03:59:38;;;;;;;4.22;0.85;;;4.30;99.90;;;;;;5016691;28;20434;-48
2021/01/03 04:02:05;;;;;;;2.05;0.20;;;4.30;99.90;;;;;;5027500;28;20049;-48
2021/01/03 04:04:32;;;;;;;6.63;0.40;;;4.40;99.90;;;;;;5028913;28;20058;-48
2021/01/03 04:06:59;;;;;;;3.40;0.60;;;4.30;99.90;;;;;;5015998;28;20050;-49
2021/01/03 04:09:26;;;;;;;1.42;0.20;;;4.30;99.90;;;;;;5024628;28;20091;-49
2021/01/03 04:11:54;;;;;;;1.83;0.13;;;4.20;99.90;;;;;;5016384;28;20045;-49
2021/01/03 04:14:23;;;;;;;5.75;0.30;;;4.20;99.90;;;;;;5029680;28;20255;-48
2021/01/03 04:16:58;;;;;;;6.50;0.63;;;4.20;99.90;;;;;;5030286;28;20689;-48
2021/01/03 04:19:25;;;;;;;1.50;0.10;;;4.20;99.90;;;;;;5021317;28;20069;-48
2021/01/03 04:22:01;;;;;;;1.27;0.20;;;4.20;99.90;;;;;;5020551;28;20486;-49
2021/01/03 04:24:29;;;;;;;2.28;0.20;;;4.20;99.90;;;;;;5015584;28;20046;-48
2021/01/03 04:26:58;;;;;;;2.60;0.30;;;4.20;99.90;;;;;;5025761;28;20046;-48
2021/01/03 04:29:25;;;;;;;2.40;0.38;;;4.20;99.90;;;;;;5011379;28;20046;-49
2021/01/03 04:32:04;;;;;;;0.70;0.20;;;4.20;99.90;;;;;;5028320;28;20050;-48
2021/01/03 04:34:31;;;;;;;1.35;0.20;;;4.20;99.90;;;;;;5026835;28;20073;-48
2021/01/03 04:36:59;;;;;;;2.70;0.38;;;4.20;99.90;;;;;;5028965;28;20053;-49
2021/01/03 04:39:28;;;;;;;5.82;0.40;;;4.20;99.90;;;;;;5028771;28;20049;-48
2021/01/03 04:42:01;;;;;;;1.65;0.40;;;4.20;99.90;;;;;;5028707;28;20467;-48
2021/01/03 04:44:32;;;;;;;;;;;4.20;99.90;;;;;;5027567;28;20045;-49
2021/01/03 04:47:04;;;;;;;1.13;0.28;;;4.20;99.90;;;;;;5029521;28;19924;-49
2021/01/03 04:49:54;;;;;;;3.20;0.40;;;4.20;99.90;;;;;;5021305;28;20041;-48
2021/01/03 04:52:36;;;;;;;6.05;0.40;;;4.20;99.90;;;;;;5020328;28;20060;-48
2021/01/03 04:55:21;;;;;;;0.98;0.50;;;4.20;99.90;;;;;;5027610;28;20045;-49
2021/01/03 04:58:10;;;;;;;3.42;0.30;;;4.20;99.90;;;;;;5021615;28;20058;-48
2021/01/03 05:00:41;;;;;;;5.50;0.35;;;4.20;99.90;;;;;;5022595;28;20119;-49
2021/01/03 05:03:45;;;;;;;5.63;1.23;;;4.20;99.90;;;;;;5021656;28;20048;-48
2021/01/03 05:06:24;;;;;;;6.00;1.00;;;4.20;99.90;;;;;;5023918;28;20061;-48
2021/01/03 05:09:00;;;;;;;2.40;0.40;;;4.20;99.90;;;;;;5018324;28;20057;-48
2021/01/03 05:11:55;;;;;;;1.88;0.30;;;4.20;99.90;;;;;;5029584;28;20045;-48
2021/01/03 05:14:21;;;;;;;1.00;0.20;;;4.20;99.90;;;;;;5028306;28;20068;-48
2021/01/03 05:16:55;;;;;;;0.40;0.10;;;4.20;99.90;;;;;;5021782;28;20057;-49
2021/01/03 05:19:22;;;;;;;0.88;0.20;;;4.20;99.90;;;;;;5032367;28;20037;-48
2021/01/03 05:21:55;;;;;;;1.08;0.20;;;4.20;99.90;;;;;;5029738;28;20162;-49
2021/01/03 05:24:24;;;;;;;0.43;0.10;;;4.20;99.90;;;;;;5020431;28;20046;-49
2021/01/03 05:26:51;;;;;;;0.40;0.10;;;4.20;99.90;;;;;;5026730;28;20060;-48
2021/01/03 05:29:28;;;;;;;1.13;0.20;;;4.20;99.90;;;;;;5016100;28;20065;-48
2021/01/03 05:32:05;;;;;;;0.73;0.20;;;4.20;99.90;;;;;;5031029;28;20053;-49
2021/01/03 05:34:38;;;;;;;0.77;0.10;;;4.20;99.90;;;;;;5030563;28;20065;-49
2021/01/03 05:37:14;;;;;;;2.75;0.30;;;4.20;99.90;;;;;;5030963;28;20053;-48
2021/01/03 05:39:41;;;;;;;4.32;0.40;;;4.20;99.90;;;;;;5029469;28;20054;-49
2021/01/03 05:42:20;;;;;;;0.68;0.28;;;4.20;99.90;;;;;;5015483;28;20054;-48
2021/01/03 05:45:00;;;;;;;0.65;0.30;;;4.20;99.90;;;;;;5030808;28;20394;-48
2021/01/03 05:47:38;;;;;;;2.80;0.30;;;4.20;99.90;;;;;;5030935;28;20041;-48
2021/01/03 05:50:08;;;;;;;0.98;0.30;;;4.10;99.90;;;;;;5020272;28;20064;-49
2021/01/03 05:52:49;;;;;;;1.95;0.10;;;4.20;99.90;;;;;;5026840;28;20522;-48
2021/01/03 05:55:26;;;;;;;1.45;0.10;;;4.10;99.90;;;;;;5030563;28;20071;-48
2021/01/03 05:58:11;;;;;;;0.25;0.10;;;4.10;99.90;;;;;;5031307;28;20068;-50
2021/01/03 06:00:39;;;;;;;0.22;0.10;;;4.20;99.90;;;;;;5030321;28;20096;-48
2021/01/03 06:03:27;;;;;;;0.85;0.10;;;4.20;99.90;;;;;;5019961;28;20058;-48
2021/01/03 06:05:59;;;;;;;1.65;0.10;;;4.20;99.90;;;;;;5028206;28;20065;-49
2021/01/03 06:08:28;;;;;;;0.85;0.10;;;4.20;99.90;;;;;;5029955;28;20050;-49
2021/01/03 06:11:09;;;;;;;0.47;0.10;;;4.20;99.90;;;;;;5025955;28;20050;-49
2021/01/03 06:13:49;;;;;;;1.38;0.10;;;4.20;99.90;;;;;;5021199;28;20449;-49
2021/01/03 06:16:20;;;;;;;1.23;0.20;;;4.20;99.90;;;;;;5017170;28;20143;-49
2021/01/03 06:18:49;;;;;;;1.05;0.20;;;4.20;99.90;;;;;;5029788;28;20422;-49
2021/01/03 06:21:21;;;;;;;5.85;0.40;;;4.20;99.90;;;;;;5028788;28;20623;-48
2021/01/03 06:24:19;;;;;;;3.22;0.30;;;4.20;99.90;;;;;;5031911;28;20050;-48
2021/01/03 06:26:52;;;;;;;0.85;0.30;;;4.20;99.90;;;;;;5030690;28;20045;-49
2021/01/03 06:29:26;;;;;;;3.50;0.45;;;4.20;99.90;;;;;;5022064;28;20475;-48
2021/01/03 06:32:17;;;;;;;7.20;1.02;;;4.20;99.90;;;;;;5029574;28;20049;-49
2021/01/03 06:35:13;;;;;;;8.40;0.82;;;4.20;99.90;;;;;;5031833;28;20390;-49
2021/01/03 06:37:55;;;;;;;2.78;0.40;;;4.20;99.90;;;;;;4995107;28;20058;-48
2021/01/03 06:40:24;;;;;;;1.77;0.30;;;4.20;99.90;;;;;;5026682;28;20407;-49
2021/01/03 06:43:25;;;;;;;2.35;0.30;;;4.20;99.90;;;;;;5021400;28;20057;-49
2021/01/03 06:46:13;;;;;;;3.22;0.20;;;4.20;99.90;;;;;;5030160;28;20049;-48
2021/01/03 06:49:05;;;;;;;2.58;0.35;;;4.20;99.90;;;;;;5030284;28;20068;-48
2021/01/03 06:51:47;;;;;;;10.45;0.98;;;4.20;99.90;;;;;;5014072;28;20161;-48
2021/01/03 06:54:20;;;;;;;1.63;0.40;;;4.20;99.90;;;;;;5021110;28;20153;-49
2021/01/03 06:57:11;;;;;;;5.55;0.60;;;4.20;99.90;;;;;;5021084;28;20048;-49
2021/01/03 07:00:12;;;;;;;8.27;1.20;;;4.20;99.90;;;;;;5030605;28;20053;-49
2021/01/03 07:02:54;;;;;;;7.82;1.80;;;4.20;99.90;;;;;;5023698;28;20050;-49
2021/01/03 07:05:21;;;;;;;2.78;0.70;;;4.20;99.90;;;;;;5024551;28;20483;-48
2021/01/03 07:08:03;;;;;;;3.67;0.70;;;4.20;99.90;;;;;;5015812;28;20104;-49
2021/01/03 07:10:37;;;;;;;3.60;0.90;;;4.20;99.90;;;;;;5027069;28;20065;-49
2021/01/03 07:13:29;;;;;;;2.25;0.57;;;4.10;99.90;;;;;;5014524;28;20057;-48
2021/01/03 07:16:08;;;;;;;3.50;0.43;;;4.10;99.90;;;;;;5030372;28;20410;-49
2021/01/03 07:18:45;;;;;;;2.58;0.25;;;4.20;99.90;;;;;;5026671;28;20411;-49
2021/01/03 07:21:13;;;;;;;1.10;0.20;;;4.20;99.90;;;;;;5018893;28;20054;-49
2021/01/03 07:23:43;;;;;;;7.38;2.55;;;4.20;99.90;;;;;;5027033;28;20069;-49
2021/01/03 07:26:29;;;;;;;10.77;1.80;;;4.20;99.90;;;;;;5017055;28;20042;-48
2021/01/03 07:29:28;;;;;;;8.45;1.77;;;4.20;99.90;;;;;;5028804;28;20121;-48
2021/01/03 07:32:05;;;;;;;3.58;2.40;;;4.20;99.90;;;;;;5047671;28;20433;-49
2021/01/03 07:34:34;;;;;;;8.57;5.15;;;4.20;99.90;;;;;;5045072;28;20054;-48
2021/01/03 07:37:16;;;;;;;3.13;0.70;;;4.20;99.90;;;;;;5045768;28;20053;-49
2021/01/03 07:40:10;;;;;;;1.63;0.68;;;4.20;99.90;;;;;;5046527;28;20037;-48
2021/01/03 07:43:02;;;;;;;1.35;0.70;;;4.20;99.90;;;;;;5030319;28;20073;-48
2021/01/03 07:45:32;;;;;;;2.17;0.68;;;4.20;99.90;;;;;;5048800;28;20041;-49
2021/01/03 07:47:59;;;;;;;6.95;0.80;;;4.20;99.90;;;;;;5035857;28;20041;-48
2021/01/03 07:50:35;;;;;;;2.33;0.70;;;4.30;99.90;;;;;;5050615;28;20048;-49
2021/01/03 07:53:23;;;;;;;7.82;2.67;;;4.30;99.90;;;;;;5047586;28;20041;-49
2021/01/03 07:55:49;;;;;;;7.13;2.40;;;4.30;99.90;;;;;;5034624;28;20053;-48
2021/01/03 07:58:24;;;;;;;22.27;9.57;;;4.40;99.90;;;;;;5048698;28;20048;-48
2021/01/03 08:00:55;;;;;;;40.10;17.98;;;4.50;99.90;;;;;;5037730;28;20106;-49
2021/01/03 08:03:24;;;;;;;9.57;3.03;;;4.60;99.90;;;;;;5037327;28;20057;-48
2021/01/03 08:05:53;;;;;;;5.07;1.45;;;4.60;99.90;;;;;;5045202;28;20107;-48
2021/01/03 08:08:28;;;;;;;8.73;1.15;;;4.70;99.90;;;;;;5033720;28;20038;-48
2021/01/03 08:11:19;;;;;;;9.55;1.80;;;4.70;99.90;;;;;;5025404;28;20045;-48
2021/01/03 08:13:48;;;;;;;5.50;1.55;;;4.70;99.90;;;;;;5017727;28;20064;-49
2021/01/03 08:16:23;;;;;;;2.00;0.50;;;4.70;99.90;;;;;;5024864;28;20046;-48
2021/01/03 08:19:05;;;;;;;2.42;0.75;;;4.80;99.90;;;;;;5027908;28;20060;-48
2021/01/03 08:21:38;;;;;;;4.30;0.90;;;4.80;99.90;;;;;;5011613;28;20050;-48
2021/01/03 08:24:11;;;;;;;6.10;1.88;;;4.80;99.90;;;;;;5025368;28;20053;-48
2021/01/03 08:26:52;;;;;;;9.18;0.98;;;4.90;99.90;;;;;;5029067;28;20038;-48
2021/01/03 08:29:42;;;;;;;8.23;2.90;;;5.10;99.90;;;;;;5030084;28;20069;-49
2021/01/03 08:32:22;;;;;;;2.92;0.43;;;5.10;99.90;;;;;;5026386;28;20045;-49
2021/01/03 08:34:49;;;;;;;4.25;0.40;;;5.20;99.90;;;;;;5024311;28;20049;-49
2021/01/03 08:37:18;;;;;;;0.75;0.25;;;5.20;99.90;;;;;;5028289;28;20045;-49
2021/01/03 08:39:50;;;;;;;3.42;0.17;;;5.30;99.90;;;;;;5024400;28;20052;-49
2021/01/03 08:42:37;;;;;;;1.42;0.20;;;5.30;99.90;;;;;;5029151;28;20049;-48
2021/01/03 08:45:07;;;;;;;0.10;0.10;;;5.30;99.90;;;;;;5024000;28;20053;-48
2021/01/03 08:47:39;;;;;;;0.30;0.20;;;5.40;99.90;;;;;;5024180;28;20502;-48
2021/01/03 08:50:10;;;;;;;0.10;0.10;;;5.30;99.90;;;;;;5032157;28;20053;-48
2021/01/03 08:52:37;;;;;;;2.95;0.25;;;5.40;99.90;;;;;;5023206;28;20056;-50
2021/01/03 08:55:10;;;;;;;0.75;0.10;;;5.50;99.90;;;;;;5025454;28;20411;-48
2021/01/03 08:57:39;;;;;;;7.00;0.20;;;5.50;99.90;;;;;;5030024;28;20053;-48
2021/01/03 09:00:13;;;;;;;0.63;0.10;;;5.70;99.90;;;;;;5020778;28;20075;-49
2021/01/03 09:02:44;;;;;;;0.70;0.17;;;5.80;99.90;;;;;;5033350;28;20045;-48
2021/01/03 09:05:14;;;;;;;1.67;0.10;;;5.90;99.90;;;;;;5033218;28;20037;-48
2021/01/03 09:07:42;;;;;;;1.23;0.20;;;6.10;99.90;;;;;;5032364;28;20064;-49
2021/01/03 09:10:18;;;;;;;1.15;0.10;;;6.20;99.90;;;;;;5031254;28;20434;-50
2021/01/03 09:12:46;;;;;;;0.10;0.05;;;6.20;99.90;;;;;;5022204;28;20058;-49
2021/01/03 09:15:21;;;;;;;0.63;0.63;;;6.20;99.90;;;;;;5031485;28;20054;-48
2021/01/03 09:18:05;;;;;;;0.90;0.00;;;6.20;99.90;;;;;;5027120;28;20466;-49
2021/01/03 09:20:42;;;;;;;1.20;0.10;;;6.30;99.90;;;;;;5031998;28;20512;-48
2021/01/03 09:23:12;;;;;;;0.40;0.10;;;6.30;99.90;;;;;;5027117;28;20049;-49
2021/01/03 09:25:41;;;;;;;1.02;0.20;;;6.30;99.90;;;;;;5017705;28;20048;-48
2021/01/03 09:28:20;;;;;;;0.60;0.30;;;6.30;99.90;;;;;;5025167;28;20494;-49
2021/01/03 09:30:47;;;;;;;1.23;0.10;;;6.30;99.90;;;;;;5013754;28;20486;-48
2021/01/03 09:33:19;;;;;;;0.50;0.20;;;6.40;99.90;;;;;;5026252;28;20442;-48
2021/01/03 09:36:01;;;;;;;0.40;0.20;;;6.30;99.90;;;;;;5015427;28;20467;-48
2021/01/03 09:38:40;;;;;;;0.63;0.20;;;6.30;99.90;;;;;;5021237;28;20069;-48
2021/01/03 09:41:24;;;;;;;0.93;0.10;;;6.30;99.90;;;;;;5024166;28;20060;-49
2021/01/03 09:44:13;;;;;;;0.17;0.00;;;6.30;99.90;;;;;;5031539;28;20049;-49
2021/01/03 09:47:08;;;;;;;0.73;0.10;;;6.40;99.90;;;;;;5029860;28;20053;-48
2021/01/03 09:49:47;;;;;;;1.58;0.20;;;6.60;99.90;;;;;;5029158;28;20498;-49
2021/01/03 09:52:28;;;;;;;0.10;0.00;;;6.80;99.90;;;;;;5017759;28;20053;-49
2021/01/03 09:55:03;;;;;;;3.90;1.20;;;7.00;99.90;;;;;;5028441;28;20414;-52
2021/01/03 09:57:42;;;;;;;0.17;0.10;;;6.90;99.90;;;;;;5023224;28;20514;-49
2021/01/03 10:00:15;;;;;;;0.30;0.20;;;6.90;99.90;;;;;;5024220;28;20057;-48
2021/01/03 10:02:42;;;;;;;;;;;6.90;99.90;;;;;;5021808;28;20064;-49
2021/01/03 10:05:37;;;;;;;0.03;0.00;;;6.90;99.90;;;;;;5030117;28;19928;-48
2021/01/03 10:08:07;;;;;;;0.75;0.10;;;6.90;99.90;;;;;;5026308;28;20050;-49
2021/01/03 10:11:00;;;;;;;4.28;0.60;;;6.80;99.90;;;;;;5027925;28;20049;-48
2021/01/03 10:13:29;;;;;;;1.42;0.10;;;6.80;99.90;;;;;;5031819;28;20049;-48
2021/01/03 10:15:56;;;;;;;0.20;0.05;;;6.70;99.90;;;;;;5027267;28;20053;-48
2021/01/03 10:18:38;;;;;;;5.82;0.50;;;6.70;99.90;;;;;;5035080;28;20054;-48
2021/01/03 10:21:29;;;;;;;0.40;0.10;;;6.70;99.90;;;;;;5022797;28;20128;-49
2021/01/03 10:24:02;;;;;;;1.50;0.20;;;6.60;99.90;;;;;;5030314;28;20053;-48
2021/01/03 10:26:34;;;;;;;0.82;0.50;;;6.70;99.90;;;;;;5028956;28;20399;-48
2021/01/03 10:29:01;;;;;;;0.70;0.30;;;6.80;99.90;;;;;;5026753;28;20046;-48
2021/01/03 10:31:46;;;;;;;0.90;0.30;;;6.80;99.90;;;;;;5024052;28;20448;-48
2021/01/03 10:34:18;;;;;;;1.75;0.30;;;6.90;99.90;;;;;;5030999;28;20099;-48
2021/01/03 10:36:45;;;;;;;3.28;0.10;;;7.20;99.90;;;;;;5028276;28;20053;-48
2021/01/03 10:39:13;;;;;;;1.83;0.20;;;7.30;99.90;;;;;;5028312;28;20053;-48
2021/01/03 10:41:44;;;;;;;0.30;0.10;;;7.30;99.90;;;;;;5029432;28;20050;-48
2021/01/03 10:44:11;;;;;;;3.28;0.40;;;7.20;99.90;;;;;;5026568;28;20502;-48
2021/01/03 10:46:39;;;;;;;2.17;0.50;;;7.30;99.90;;;;;;5014693;28;20046;-48
2021/01/03 10:49:06;;;;;;;2.03;0.40;;;7.30;99.90;;;;;;5023766;28;20061;-49
2021/01/03 10:51:41;;;;;;;3.03;0.15;;;7.30;99.90;;;;;;5018210;28;20053;-49
2021/01/03 10:54:12;;;;;;;0.43;0.20;;;7.20;99.90;;;;;;5030084;28;20041;-48
2021/01/03 10:56:38;;;;;;;0.38;0.20;;;7.10;99.90;;;;;;5027265;28;20052;-48
2021/01/03 10:59:07;;;;;;;1.40;0.50;;;7.10;99.90;;;;;;5030504;28;20058;-49
2021/01/03 11:01:38;;;;;;;0.63;0.30;;;7.00;99.90;;;;;;5025377;28;20058;-49
2021/01/03 11:04:05;;;;;;;3.50;0.30;;;7.00;99.90;;;;;;5028282;28;20502;-50
2021/01/03 11:06:44;;;;;;;2.75;0.20;;;7.00;99.90;;;;;;5027380;28;20488;-48
2021/01/03 11:09:17;;;;;;;0.77;0.10;;;6.90;99.90;;;;;;5027052;28;20045;-49
2021/01/03 11:11:43;;;;;;;0.88;0.20;;;6.90;99.90;;;;;;5028036;28;20536;-51
2021/01/03 11:14:10;;;;;;;1.45;0.40;;;6.90;99.90;;;;;;5028882;28;20056;-48
2021/01/03 11:16:41;;;;;;;1.48;0.43;;;6.90;99.90;;;;;;5031349;28;20057;-49
2021/01/03 11:19:13;;;;;;;1.38;0.50;;;6.90;99.90;;;;;;5027373;28;20057;-50
2021/01/03 11:21:40;;;;;;;1.77;0.63;;;6.90;99.90;;;;;;5031234;28;20099;-48
2021/01/03 11:24:07;;;;;;;1.25;0.40;;;6.90;99.90;;;;;;5025205;28;20049;-49
2021/01/03 11:26:37;;;;;;;5.03;0.57;;;6.90;99.90;;;;;;5017792;28;20089;-51
2021/01/03 11:29:06;;;;;;;4.68;0.73;;;6.90;99.90;;;;;;5022484;28;20156;-49
2021/01/03 11:31:37;;;;;;;0.40;0.20;;;7.00;99.90;;;;;;5034494;28;20083;-48
2021/01/03 11:34:06;;;;;;;6.82;1.35;;;7.00;99.90;;;;;;5020003;28;20049;-51
2021/01/03 11:36:33;;;;;;;2.42;0.40;;;7.00;99.90;;;;;;5028632;28;20061;-48
2021/01/03 11:39:01;;;;;;;2.13;0.47;;;7.00;99.90;;;;;;5022997;28;20052;-48
2021/01/03 11:41:27;;;;;;;0.75;0.40;;;7.00;99.90;;;;;;5027753;28;20056;-49
2021/01/03 11:43:54;;;;;;;0.60;0.28;;;7.10;99.90;;;;;;5027734;28;20053;-49
2021/01/03 11:46:21;;;;;;;0.10;0.10;;;7.10;99.90;;;;;;5026425;28;20046;-48
2021/01/03 11:48:48;;;;;;;2.15;0.20;;;7.20;99.90;;;;;;5018221;28;20049;-49
2021/01/03 11:51:15;;;;;;;0.73;0.10;;;7.10;99.90;;;;;;5023975;28;20058;-48
2021/01/03 11:53:41;;;;;;;4.10;0.80;;;7.10;99.90;;;;;;5030112;28;20509;-50
2021/01/03 11:56:08;;;;;;;0.63;0.20;;;7.20;99.90;;;;;;5024907;28;20502;-49
2021/01/03 11:58:34;;;;;;;1.55;0.20;;;7.10;99.90;;;;;;5025187;28;20061;-49
2021/01/03 12:01:02;;;;;;;2.92;1.30;;;7.20;99.90;;;;;;5029453;28;20460;-48
2021/01/03 12:03:29;;;;;;;1.88;0.10;;;7.20;99.90;;;;;;5026554;28;20041;-49
2021/01/03 12:05:55;;;;;;;6.15;0.88;;;7.20;99.90;;;;;;5026643;28;20041;-49
2021/01/03 12:08:22;;;;;;;1.35;0.30;;;7.20;99.90;;;;;;5029028;28;20057;-48
2021/01/03 12:10:48;;;;;;;1.92;0.70;;;7.20;99.90;;;;;;5029347;28;20041;-49
2021/01/03 12:13:14;;;;;;;1.20;0.30;;;7.20;99.90;;;;;;5030341;28;20410;-48
2021/01/03 12:15:45;;;;;;;0.70;0.40;;;7.30;99.90;;;;;;5025709;28;20053;-49
2021/01/03 12:18:11;;;;;;;4.93;0.63;;;7.30;99.90;;;;;;5025985;28;20057;-49
2021/01/03 12:20:40;;;;;;;1.10;0.50;;;7.20;99.90;;;;;;5027115;28;20057;-49
2021/01/03 12:23:07;;;;;;;1.98;0.50;;;7.20;99.90;;;;;;5014427;28;20064;-52
2021/01/03 12:25:33;;;;;;;3.95;0.70;;;7.20;99.90;;;;;;5030234;28;20053;-51
2021/01/03 12:28:00;;;;;;;1.83;0.60;;;7.20;99.90;;;;;;5027196;28;20048;-48
2021/01/03 12:30:26;;;;;;;3.28;1.00;;;7.20;99.90;;;;;;5034293;28;20045;-50
2021/01/03 12:32:54;;;;;;;5.10;0.77;;;7.20;99.90;;;;;;5031704;28;20127;-49
2021/01/03 12:35:20;;;;;;;4.63;1.00;;;7.20;99.90;;;;;;5032806;28;20053;-49
2021/01/03 12:37:47;;;;;;;3.75;1.45;;;7.20;99.90;;;;;;5031837;28;20053;-50
2021/01/03 12:40:14;;;;;;;4.97;1.88;;;7.20;99.90;;;;;;5031226;28;20050;-50
2021/01/03 12:42:40;;;;;;;1.30;0.70;;;7.20;99.90;;;;;;5032333;28;20053;-49
2021/01/03 12:45:10;;;;;;;2.40;0.60;;;7.20;99.90;;;;;;5034870;28;20058;-52
2021/01/03 12:47:36;;;;;;;1.88;0.20;;;7.30;99.90;;;;;;5020536;28;20050;-48
2021/01/03 12:50:05;;;;;;;1.48;0.43;;;7.30;99.90;;;;;;5027659;28;20056;-50
2021/01/03 12:52:32;;;;;;;2.80;0.20;;;7.30;99.90;;;;;;5022717;28;20045;-52
2021/01/03 12:54:58;;;;;;;0.45;0.25;;;7.30;99.90;;;;;;5031362;28;20049;-49
2021/01/03 12:57:25;;;;;;;2.08;0.43;;;7.30;99.90;;;;;;5032175;28;20480;-49
2021/01/03 12:59:51;;;;;;;0.93;0.20;;;7.40;99.90;;;;;;5032445;28;20388;-52
2021/01/03 13:02:18;;;;;;;1.90;0.30;;;7.40;99.90;;;;;;5031546;28;20057;-49
2021/01/03 13:04:56;;;;;;;2.03;0.52;;;7.40;99.90;;;;;;5033295;28;20045;-49
2021/01/03 13:07:22;;;;;;;0.88;0.80;;;7.40;99.90;;;;;;5033018;28;20060;-50
2021/01/03 13:09:50;;;;;;;2.88;0.70;;;7.40;99.90;;;;;;5033063;28;20081;-49
2021/01/03 13:12:17;;;;;;;0.73;0.40;;;7.30;99.90;;;;;;5028874;28;20049;-52
2021/01/03 13:14:43;;;;;;;1.98;0.40;;;7.30;99.90;;;;;;5018969;28;20049;-49
2021/01/03 13:17:10;;;;;;;1.35;0.40;;;7.30;99.90;;;;;;5027223;28;20484;-48
2021/01/03 13:19:36;;;;;;;1.25;0.50;;;7.30;99.90;;;;;;5023203;28;20045;-49
2021/01/03 13:22:04;;;;;;;0.82;0.50;;;7.30;99.90;;;;;;5018677;28;20054;-52
2021/01/03 13:24:31;;;;;;;2.03;0.32;;;7.20;99.90;;;;;;5028255;28;20041;-51
2021/01/03 13:26:58;;;;;;;0.90;0.60;;;7.30;99.90;;;;;;5014846;28;20054;-49